Tenerife > ESTACION METEOROLÓGICA Hoya Grande - Adeje

DATOS ACTUALES Online

Ultima actulizacion 14 minutos

19.2 ºC

Temperatura

80

Humedad (%)

Presión (mb)

0

Precipitación (mm)

0

Viento (Km/h)
0 Racha máxima

GRÁFICA DIARIA

Temperatura últimas 24 horas (ºC)

Humedad últimas 24 horas (%)

Presión atmosférica últimas 24 horas (mb)

Precipitaciones últimas 23 horas (mm)

Viento últimas 24 horas (Km/h)

Hora Temperatura (°C) ºC Precipitación (mm) mm Presión (mb) mb Humedad (%) % Viento (Km/h) km/h
27 - 03:00 17.1 0 0 92.6 0 0
27 - 04:00 17.7 0 0 85.9 0 0
27 - 05:00 17.2 0 0 83.9 0 0
27 - 06:00 15.3 0 0 91 0 0
27 - 07:00 15.3 0 0 92.4 0 0
27 - 08:00 18.1 0 0 86.2 0 0
27 - 09:00 21 0 0 68.9 0 0
27 - 10:00 22.3 0 0 63.9 1.8 8
27 - 11:00 23.8 0 0 54.8 3.6 6
27 - 12:00 24.3 0 0 53.7 4.3 3
27 - 13:00 24.5 0 0 52.9 3.2 2
27 - 14:00 25.2 0 0 47.7 4 4
27 - 15:00 24.9 0 0 47.5 4.7 7
27 - 16:00 24.8 0 0 50.4 5.4 4
27 - 17:00 24.5 0 0 50.1 5 5
27 - 18:00 23.5 0 0 58.4 5.4 4
27 - 19:00 22.6 0 0 63.8 4.7 7
27 - 20:00 20.4 0 0 76.6 2.2 2
27 - 21:00 19.8 0 0 82.6 0 0
27 - 22:00 19.4 0 0 85.8 0 0
27 - 23:00 19.6 0 0 84.7 0 0
28 - 00:00 19.8 0 0 84.7 0 0
28 - 01:00 19.6 0 0 82.6 0 0
28 - 02:00 19.5 0 0 79.7 0 0
28 - 03:00 19.2 0 0 80.1 0 0
Apalmet utiliza cookies propias y de terceros para mejorar la usabilidad y la experiencia web. Política de cookies.